createdAt,value
2018-05-09T00:00:36.508Z,42.60
2018-05-09T00:03:04.010Z,42.70
2018-05-09T00:05:31.484Z,42.80
2018-05-09T00:07:58.952Z,42.80
2018-05-09T00:10:26.424Z,42.70
2018-05-09T00:12:53.903Z,42.50
2018-05-09T00:15:21.452Z,42.50
2018-05-09T00:17:48.905Z,42.30
2018-05-09T00:20:16.376Z,42.20
2018-05-09T00:22:43.828Z,42.10
2018-05-09T00:25:11.312Z,41.90
2018-05-09T00:27:38.847Z,41.60
2018-05-09T00:30:06.304Z,41.30
2018-05-09T00:32:34.085Z,41.10
2018-05-09T00:35:01.556Z,40.90
2018-05-09T00:37:29.023Z,40.70
2018-05-09T00:39:56.499Z,40.80
2018-05-09T00:42:23.948Z,40.90
2018-05-09T00:44:51.543Z,41.30
2018-05-09T00:47:19.783Z,41.90
2018-05-09T00:49:47.232Z,41.90
2018-05-09T00:52:14.712Z,42.10
2018-05-09T00:54:42.225Z,42.40
2018-05-09T00:57:09.685Z,42.50
2018-05-09T00:59:37.185Z,42.60
2018-05-09T01:02:04.643Z,42.50
2018-05-09T01:04:32.102Z,41.90
2018-05-09T01:06:59.580Z,41.80
2018-05-09T01:09:27.124Z,41.60
2018-05-09T01:11:54.532Z,41.70
2018-05-09T01:14:22.031Z,41.60
2018-05-09T01:16:49.515Z,41.50
2018-05-09T01:19:17.748Z,41.10
2018-05-09T01:21:45.220Z,41.10
2018-05-09T01:24:12.688Z,40.80
2018-05-09T01:26:40.148Z,40.60
2018-05-09T01:29:07.629Z,40.90
2018-05-09T01:31:35.892Z,41.20
2018-05-09T01:34:04.122Z,41.10
2018-05-09T01:36:31.643Z,41.10
2018-05-09T01:38:59.895Z,41.00
2018-05-09T01:41:27.345Z,40.90
2018-05-09T01:43:54.823Z,40.90
2018-05-09T01:46:23.114Z,41.20
2018-05-09T01:48:51.360Z,41.30
2018-05-09T01:51:18.845Z,41.90
2018-05-09T01:53:47.061Z,41.60
2018-05-09T01:56:14.521Z,41.60
2018-05-09T01:58:42.020Z,41.70
2018-05-09T02:01:09.474Z,42.30
2018-05-09T02:03:36.935Z,41.80
2018-05-09T02:06:04.447Z,42.00
2018-05-09T02:08:31.916Z,42.20
2018-05-09T02:10:59.373Z,42.30
2018-05-09T02:13:26.832Z,42.50
2018-05-09T02:15:54.308Z,42.50
2018-05-09T02:18:21.772Z,42.60
2018-05-09T02:20:49.257Z,42.80
2018-05-09T02:23:17.465Z,43.00
2018-05-09T02:25:44.984Z,43.00
2018-05-09T02:28:12.461Z,43.10
2018-05-09T02:30:39.912Z,43.30
2018-05-09T02:33:07.404Z,43.40
2018-05-09T02:35:34.936Z,43.50
2018-05-09T02:38:03.176Z,43.60
2018-05-09T02:40:30.649Z,43.60
2018-05-09T02:42:58.887Z,43.80
2018-05-09T02:45:26.364Z,43.80
2018-05-09T02:47:53.840Z,43.90
2018-05-09T02:50:22.080Z,44.20
2018-05-09T02:52:49.558Z,44.20
2018-05-09T02:55:17.010Z,44.10
2018-05-09T02:57:44.482Z,44.40
2018-05-09T03:00:11.939Z,44.50
2018-05-09T03:02:39.425Z,44.60
2018-05-09T03:05:06.974Z,44.70
2018-05-09T03:07:35.221Z,45.10
2018-05-09T03:10:02.676Z,45.10
2018-05-09T03:12:30.155Z,45.20
2018-05-09T03:14:57.623Z,45.30
2018-05-09T03:17:25.077Z,45.50
2018-05-09T03:19:52.560Z,45.50
2018-05-09T03:22:20.784Z,45.90
2018-05-09T03:24:48.255Z,45.80
2018-05-09T03:27:15.716Z,46.00
2018-05-09T03:29:43.616Z,46.00
2018-05-09T03:32:11.038Z,46.30
2018-05-09T03:34:38.567Z,46.40
2018-05-09T03:37:06.038Z,46.40
2018-05-09T03:39:33.517Z,46.60
2018-05-09T03:42:00.964Z,46.60
2018-05-09T03:44:28.457Z,46.60
2018-05-09T03:46:55.907Z,46.80
2018-05-09T03:49:23.359Z,46.70
2018-05-09T03:51:50.832Z,46.60
2018-05-09T03:54:19.053Z,46.70
2018-05-09T03:56:46.532Z,46.80
2018-05-09T03:59:13.984Z,46.90
2018-05-09T04:01:53.317Z,47.00
2018-05-09T04:04:32.626Z,47.20
2018-05-09T04:07:11.801Z,47.30
2018-05-09T04:09:50.405Z,47.50
2018-05-09T04:12:17.927Z,47.40
2018-05-09T04:14:45.358Z,47.30
2018-05-09T04:17:12.827Z,47.50
2018-05-09T04:19:41.064Z,47.90
2018-05-09T04:22:08.673Z,47.50
2018-05-09T04:24:36.140Z,48.00
2018-05-09T04:27:03.632Z,47.90
2018-05-09T04:29:31.082Z,47.90
2018-05-09T04:31:58.534Z,48.00
2018-05-09T04:34:26.017Z,48.10
2018-05-09T04:36:53.465Z,48.20
2018-05-09T04:39:20.944Z,48.30
2018-05-09T04:41:48.610Z,48.30
2018-05-09T04:44:16.083Z,48.70
2018-05-09T04:46:43.565Z,48.70
2018-05-09T04:49:11.284Z,48.70
2018-05-09T04:51:38.685Z,48.60
2018-05-09T04:54:06.143Z,48.60
2018-05-09T04:56:34.424Z,48.80
2018-05-09T04:59:01.890Z,48.80
2018-05-09T05:01:29.364Z,48.60
2018-05-09T05:03:56.845Z,48.80
2018-05-09T05:06:24.344Z,48.90
2018-05-09T05:08:51.821Z,48.80
2018-05-09T05:11:19.272Z,48.80
2018-05-09T05:13:46.760Z,48.80
2018-05-09T05:16:14.220Z,48.80
2018-05-09T05:18:41.720Z,49.00
2018-05-09T05:21:09.176Z,49.00
2018-05-09T05:23:36.625Z,49.00
2018-05-09T05:26:04.121Z,49.00
2018-05-09T05:28:31.619Z,48.80
2018-05-09T05:30:59.904Z,48.60
2018-05-09T05:33:27.874Z,48.60
2018-05-09T05:35:55.367Z,48.50
2018-05-09T05:38:23.274Z,48.90
2018-05-09T05:40:50.744Z,49.50
2018-05-09T05:43:18.236Z,49.60
2018-05-09T05:45:45.692Z,49.50
2018-05-09T05:48:13.288Z,49.70
2018-05-09T05:50:41.534Z,49.80
2018-05-09T05:53:09.197Z,49.70
2018-05-09T05:55:36.682Z,49.60
2018-05-09T05:58:04.930Z,49.50
2018-05-09T06:00:32.384Z,49.50
2018-05-09T06:02:59.971Z,49.60
2018-05-09T06:05:27.458Z,49.60
2018-05-09T06:07:55.047Z,49.50
2018-05-09T06:10:22.486Z,49.50
2018-05-09T06:12:49.947Z,49.60
2018-05-09T06:15:17.432Z,50.10
2018-05-09T06:17:44.888Z,49.30
2018-05-09T06:20:12.373Z,49.20
2018-05-09T06:22:39.830Z,49.00
2018-05-09T06:25:07.310Z,49.00
2018-05-09T06:27:35.532Z,48.90
2018-05-09T06:30:03.030Z,48.90
2018-05-09T06:32:31.302Z,48.50
2018-05-09T06:34:58.768Z,48.40
2018-05-09T06:37:26.238Z,48.30
2018-05-09T06:39:53.709Z,48.10
2018-05-09T06:42:21.162Z,48.20
2018-05-09T06:44:48.641Z,48.20
2018-05-09T06:47:16.216Z,48.30
2018-05-09T06:49:43.687Z,48.60
2018-05-09T06:52:11.131Z,48.70
2018-05-09T06:54:38.612Z,48.60
2018-05-09T06:57:06.075Z,48.40
2018-05-09T06:59:33.560Z,48.30
2018-05-09T07:02:01.017Z,48.20
2018-05-09T07:04:28.471Z,48.20
2018-05-09T07:06:55.944Z,48.30
2018-05-09T07:09:23.436Z,48.30
2018-05-09T07:11:50.924Z,48.30
2018-05-09T07:14:18.383Z,48.20
2018-05-09T07:16:45.896Z,48.20
2018-05-09T07:19:13.348Z,48.10
2018-05-09T07:21:40.813Z,48.90
2018-05-09T07:24:08.295Z,48.40
2018-05-09T07:26:35.879Z,48.30
2018-05-09T07:29:04.167Z,48.60
2018-05-09T07:31:31.622Z,48.50
2018-05-09T07:33:59.076Z,48.40
2018-05-09T07:36:26.572Z,48.30
2018-05-09T07:38:54.039Z,48.30
2018-05-09T07:41:21.489Z,48.20
2018-05-09T07:43:48.981Z,48.00
2018-05-09T07:46:16.441Z,48.00
2018-05-09T07:48:43.920Z,48.00
2018-05-09T07:51:11.379Z,47.80
2018-05-09T07:53:38.855Z,47.90
2018-05-09T07:56:06.328Z,48.00
2018-05-09T07:58:34.009Z,48.30
2018-05-09T08:01:01.480Z,48.50
2018-05-09T08:03:28.937Z,48.40
2018-05-09T08:05:56.538Z,48.40
2018-05-09T08:08:23.943Z,48.30
2018-05-09T08:10:51.405Z,48.40
2018-05-09T08:13:18.885Z,48.20
2018-05-09T08:15:46.397Z,48.50
2018-05-09T08:18:13.828Z,48.30
2018-05-09T08:20:41.296Z,48.00
2018-05-09T08:23:08.772Z,47.70
2018-05-09T08:25:36.236Z,47.20
2018-05-09T08:28:03.726Z,46.90
2018-05-09T08:30:31.181Z,46.80
2018-05-09T08:32:58.664Z,46.90
2018-05-09T08:35:26.128Z,47.40
2018-05-09T08:37:53.706Z,47.20
2018-05-09T08:40:21.105Z,46.80
2018-05-09T08:42:48.603Z,47.00
2018-05-09T08:45:16.076Z,46.70
2018-05-09T08:47:43.568Z,46.40
2018-05-09T08:50:11.073Z,46.30
2018-05-09T08:52:38.552Z,46.20
2018-05-09T08:55:06.008Z,46.00
2018-05-09T08:57:33.495Z,45.80
2018-05-09T09:00:01.740Z,46.00
2018-05-09T09:02:29.204Z,46.00
2018-05-09T09:04:56.765Z,45.80
2018-05-09T09:07:24.241Z,45.40
2018-05-09T09:09:52.471Z,45.50
2018-05-09T09:12:19.953Z,45.50
2018-05-09T09:14:47.410Z,44.60
2018-05-09T09:17:14.885Z,44.40
2018-05-09T09:19:42.345Z,44.10
2018-05-09T09:22:09.829Z,43.90
2018-05-09T09:24:37.287Z,43.80
2018-05-09T09:27:04.768Z,43.50
2018-05-09T09:29:32.248Z,43.50
2018-05-09T09:31:59.710Z,43.10
2018-05-09T09:34:27.193Z,42.90
2018-05-09T09:36:55.421Z,42.60
2018-05-09T09:39:22.889Z,42.60
2018-05-09T09:41:50.367Z,42.40
2018-05-09T09:44:17.838Z,42.50
2018-05-09T09:46:45.317Z,42.50
2018-05-09T09:49:13.544Z,42.50
2018-05-09T09:51:41.034Z,42.50
2018-05-09T09:54:09.276Z,42.50
2018-05-09T09:56:36.745Z,42.50
2018-05-09T09:59:04.241Z,42.50
2018-05-09T10:01:32.465Z,41.80
2018-05-09T10:03:59.908Z,41.70
2018-05-09T10:06:27.433Z,41.30
2018-05-09T10:08:55.675Z,41.40
2018-05-09T10:11:23.164Z,41.40
2018-05-09T10:13:51.389Z,41.00
2018-05-09T10:16:18.872Z,41.00
2018-05-09T10:18:46.323Z,40.70
2018-05-09T10:21:13.804Z,40.60
2018-05-09T10:23:41.281Z,40.30
2018-05-09T10:26:09.536Z,39.90
2018-05-09T10:28:37.007Z,39.80
2018-05-09T10:31:05.236Z,39.00
2018-05-09T10:33:32.720Z,39.00
2018-05-09T10:36:00.205Z,38.80
2018-05-09T10:38:28.452Z,37.70
2018-05-09T10:40:55.947Z,37.60
2018-05-09T10:43:24.164Z,37.40
2018-05-09T10:45:51.617Z,37.40
2018-05-09T10:48:19.261Z,36.40
2018-05-09T10:50:46.751Z,34.90
2018-05-09T10:53:14.183Z,34.70
2018-05-09T10:55:41.749Z,34.40
2018-05-09T10:58:09.213Z,33.80
2018-05-09T11:00:36.702Z,33.30
2018-05-09T11:03:04.183Z,33.50
2018-05-09T11:05:31.755Z,33.30
2018-05-09T11:07:59.995Z,32.50
2018-05-09T11:10:27.472Z,32.50
2018-05-09T11:12:54.944Z,31.90
2018-05-09T11:15:23.172Z,31.40
2018-05-09T11:17:50.725Z,31.40
2018-05-09T11:20:18.201Z,31.40
2018-05-09T11:22:45.658Z,30.90
2018-05-09T11:25:13.149Z,31.10
2018-05-09T11:27:40.604Z,31.10
2018-05-09T11:30:08.089Z,30.80
2018-05-09T11:32:35.540Z,30.80
2018-05-09T11:35:03.116Z,31.00
2018-05-09T11:37:30.630Z,31.00
2018-05-09T11:39:58.077Z,31.60
2018-05-09T11:42:25.557Z,31.20
2018-05-09T11:44:53.023Z,31.40
2018-05-09T11:47:21.253Z,31.10
2018-05-09T11:49:48.819Z,31.00
2018-05-09T11:52:16.269Z,31.00
2018-05-09T11:54:43.684Z,31.00
2018-05-09T11:57:11.169Z,31.00
2018-05-09T11:59:38.629Z,30.30
2018-05-09T12:02:06.269Z,30.00
2018-05-09T12:04:33.731Z,30.10
2018-05-09T12:07:01.178Z,30.50
2018-05-09T12:09:28.640Z,30.00
2018-05-09T12:11:56.116Z,29.70
2018-05-09T12:14:23.609Z,29.70
2018-05-09T12:16:51.837Z,29.50
2018-05-09T12:19:19.324Z,29.50
2018-05-09T12:21:46.780Z,30.00
2018-05-09T12:24:14.335Z,29.60
2018-05-09T12:26:41.809Z,29.50
2018-05-09T12:29:09.270Z,29.50
2018-05-09T12:31:36.752Z,29.20
2018-05-09T12:34:04.206Z,29.30
2018-05-09T12:36:31.725Z,29.40
2018-05-09T12:38:59.148Z,29.20
2018-05-09T12:41:27.385Z,29.10
2018-05-09T12:43:54.836Z,29.10
2018-05-09T12:46:22.322Z,29.00
2018-05-09T12:48:49.969Z,29.00
2018-05-09T12:51:17.436Z,28.90
2018-05-09T12:53:44.893Z,28.60
2018-05-09T12:56:12.392Z,29.00
2018-05-09T12:58:39.858Z,28.90
2018-05-09T13:01:07.311Z,28.50
2018-05-09T13:03:35.013Z,28.70
2018-05-09T13:06:02.488Z,28.70
2018-05-09T13:08:29.957Z,28.70
2018-05-09T13:10:57.462Z,28.80
2018-05-09T13:13:24.949Z,28.70
2018-05-09T13:15:52.419Z,28.30
2018-05-09T13:18:19.880Z,28.20
2018-05-09T13:20:47.368Z,28.20
2018-05-09T13:23:15.595Z,28.20
2018-05-09T13:25:43.164Z,28.10
2018-05-09T13:28:10.595Z,27.90
2018-05-09T13:30:38.085Z,27.80
2018-05-09T13:33:05.552Z,27.90
2018-05-09T13:35:33.036Z,28.10
2018-05-09T13:38:00.493Z,27.50
2018-05-09T13:40:28.733Z,26.70
2018-05-09T13:42:56.204Z,26.70
2018-05-09T13:45:23.681Z,25.70
2018-05-09T13:47:51.220Z,24.70
2018-05-09T13:50:18.685Z,24.20
2018-05-09T13:52:46.199Z,23.60
2018-05-09T13:55:13.647Z,23.60
2018-05-09T13:57:41.115Z,23.20
2018-05-09T14:00:08.584Z,22.60
2018-05-09T14:02:36.045Z,22.80
2018-05-09T14:05:03.521Z,22.40
2018-05-09T14:07:30.977Z,21.90
2018-05-09T14:09:58.514Z,21.10
2018-05-09T14:12:26.000Z,20.60
2018-05-09T14:14:53.480Z,20.00
2018-05-09T14:17:21.701Z,20.50
2018-05-09T14:19:49.168Z,20.30
2018-05-09T14:22:16.653Z,20.80
2018-05-09T14:24:44.135Z,20.90
2018-05-09T14:27:12.412Z,19.70
2018-05-09T14:29:40.653Z,19.50
2018-05-09T14:32:08.201Z,19.40
2018-05-09T14:34:35.626Z,18.90
2018-05-09T14:37:03.081Z,17.80
2018-05-09T14:39:30.568Z,17.50
2018-05-09T14:41:58.029Z,17.20
2018-05-09T14:44:25.537Z,16.70
2018-05-09T14:46:53.001Z,16.90
2018-05-09T14:49:21.239Z,16.70
2018-05-09T14:51:48.693Z,16.60
2018-05-09T14:54:16.140Z,16.60
2018-05-09T14:56:43.607Z,16.40
2018-05-09T14:59:11.057Z,16.20
2018-05-09T15:01:38.537Z,16.60
2018-05-09T15:04:06.025Z,15.90
2018-05-09T15:06:33.484Z,16.00
2018-05-09T15:09:00.942Z,16.00
2018-05-09T15:11:28.418Z,15.90
2018-05-09T15:13:55.915Z,15.60
2018-05-09T15:16:23.416Z,15.80
2018-05-09T15:18:51.661Z,15.60
2018-05-09T15:21:19.136Z,15.60
2018-05-09T15:23:46.609Z,15.80
2018-05-09T15:26:14.077Z,15.50
2018-05-09T15:28:41.548Z,15.40
2018-05-09T15:31:09.031Z,15.40
2018-05-09T15:33:36.487Z,15.30
2018-05-09T15:36:03.968Z,15.50
2018-05-09T15:38:31.442Z,15.60
2018-05-09T15:40:59.003Z,16.20
2018-05-09T15:43:26.521Z,16.60
2018-05-09T15:45:54.045Z,16.70
2018-05-09T15:48:22.263Z,17.80
2018-05-09T15:50:49.724Z,17.40
2018-05-09T15:53:17.969Z,18.60
2018-05-09T15:55:45.418Z,18.50
2018-05-09T15:58:12.883Z,19.20
2018-05-09T16:00:40.430Z,19.80
2018-05-09T16:03:07.841Z,20.50
2018-05-09T16:05:35.288Z,20.80
2018-05-09T16:08:02.744Z,21.50
2018-05-09T16:10:30.253Z,22.00
2018-05-09T16:12:57.702Z,22.60
2018-05-09T16:15:25.187Z,23.10
2018-05-09T16:17:53.415Z,23.50
2018-05-09T16:20:20.903Z,23.50
2018-05-09T16:22:49.148Z,24.50
2018-05-09T16:25:17.041Z,24.50
2018-05-09T16:27:45.512Z,25.20
2018-05-09T16:30:12.964Z,25.20
2018-05-09T16:32:40.455Z,25.60
2018-05-09T16:35:08.674Z,25.70
2018-05-09T16:37:36.313Z,26.20
2018-05-09T16:40:03.924Z,25.80
2018-05-09T16:42:31.395Z,26.10
2018-05-09T16:44:58.868Z,26.20
2018-05-09T16:47:27.378Z,26.90
2018-05-09T16:49:55.855Z,26.90
2018-05-09T16:52:23.445Z,27.10
2018-05-09T16:54:50.952Z,27.20
2018-05-09T16:57:19.243Z,26.70
2018-05-09T16:59:46.688Z,26.70
2018-05-09T17:02:14.177Z,26.70
2018-05-09T17:04:41.640Z,26.50
2018-05-09T17:07:09.101Z,25.90
2018-05-09T17:09:36.600Z,26.40
2018-05-09T17:12:04.060Z,27.90
2018-05-09T17:14:31.544Z,28.70
2018-05-09T17:16:59.816Z,30.50
2018-05-09T17:19:28.073Z,30.90
2018-05-09T17:22:13.758Z,32.20
2018-05-09T17:24:41.238Z,31.50
2018-05-09T17:27:08.725Z,31.80
2018-05-09T17:29:36.203Z,31.90
2018-05-09T17:32:03.659Z,32.20
2018-05-09T17:34:31.360Z,32.60
2018-05-09T17:36:58.824Z,32.80
2018-05-09T17:39:26.279Z,32.90
2018-05-09T17:41:53.770Z,32.80
2018-05-09T17:44:21.257Z,33.00
2018-05-09T17:46:48.754Z,33.40
2018-05-09T17:49:16.219Z,33.60
2018-05-09T17:51:43.709Z,33.60
2018-05-09T17:54:11.168Z,33.60
2018-05-09T17:56:38.731Z,33.90
2018-05-09T17:59:06.208Z,34.00
2018-05-09T18:01:33.724Z,34.10
2018-05-09T18:04:01.219Z,34.10
2018-05-09T18:06:28.743Z,34.30
2018-05-09T18:08:56.998Z,35.20
2018-05-09T18:11:24.456Z,35.80
2018-05-09T18:13:51.940Z,35.20
2018-05-09T18:16:20.188Z,35.60
2018-05-09T18:18:47.665Z,35.60
2018-05-09T18:21:15.896Z,36.40
2018-05-09T18:23:43.451Z,36.30
2018-05-09T18:26:11.126Z,36.50
2018-05-09T18:28:38.647Z,36.60
2018-05-09T18:31:06.130Z,36.80
2018-05-09T18:33:33.688Z,36.70
2018-05-09T18:36:01.089Z,37.00
2018-05-09T18:38:28.585Z,37.00
2018-05-09T18:40:56.059Z,37.20
2018-05-09T18:43:23.543Z,37.40
2018-05-09T18:45:51.023Z,37.90
2018-05-09T18:48:18.510Z,37.90
2018-05-09T18:50:45.994Z,37.80
2018-05-09T18:53:13.487Z,37.70
2018-05-09T18:55:41.053Z,37.70
2018-05-09T18:58:08.581Z,37.90
2018-05-09T19:00:36.280Z,38.00
2018-05-09T19:03:03.858Z,38.00
2018-05-09T19:05:31.275Z,38.20
2018-05-09T19:07:58.791Z,38.30
2018-05-09T19:10:26.690Z,38.50
2018-05-09T19:12:54.183Z,38.70
2018-05-09T19:15:21.819Z,38.70
2018-05-09T19:17:49.492Z,38.90
2018-05-09T19:20:17.239Z,39.10
2018-05-09T19:22:44.836Z,39.10
2018-05-09T19:25:12.564Z,39.30
2018-05-09T19:27:40.150Z,39.50
2018-05-09T19:30:07.852Z,39.60
2018-05-09T19:32:35.491Z,39.50
2018-05-09T19:35:03.117Z,39.20
2018-05-09T19:37:30.758Z,39.20
2018-05-09T19:39:58.265Z,39.40
2018-05-09T19:42:26.001Z,39.40
2018-05-09T19:44:53.636Z,39.60
2018-05-09T19:47:21.296Z,39.80
2018-05-09T19:49:49.801Z,40.10
2018-05-09T19:52:17.513Z,40.10
2018-05-09T19:54:45.106Z,40.20
2018-05-09T19:57:12.579Z,40.30
2018-05-09T19:59:40.065Z,40.40
2018-05-09T20:02:07.675Z,40.60
2018-05-09T20:04:35.171Z,40.70
2018-05-09T20:07:02.643Z,40.80
2018-05-09T20:09:30.185Z,40.80
2018-05-09T20:11:57.820Z,40.80
2018-05-09T20:14:26.059Z,41.00
2018-05-09T20:16:53.527Z,41.00
2018-05-09T20:19:22.004Z,41.20
2018-05-09T20:21:50.292Z,41.50
2018-05-09T20:24:18.580Z,41.70
2018-05-09T20:26:46.111Z,41.70
2018-05-09T20:29:13.649Z,42.00
2018-05-09T20:31:57.291Z,42.30
2018-05-09T20:34:24.974Z,42.30
2018-05-09T20:36:52.574Z,42.30
2018-05-09T20:39:20.136Z,42.40
2018-05-09T20:41:47.805Z,42.90
2018-05-09T20:44:15.418Z,42.40
2018-05-09T20:46:43.266Z,42.60
2018-05-09T20:49:11.985Z,42.80
2018-05-09T20:51:51.156Z,43.00
2018-05-09T20:54:18.752Z,43.40
2018-05-09T20:56:46.398Z,43.90
2018-05-09T20:59:14.026Z,44.20
2018-05-09T21:01:47.131Z,44.60
2018-05-09T21:04:14.782Z,44.90
2018-05-09T21:06:42.345Z,45.10
2018-05-09T21:09:10.053Z,45.20
2018-05-09T21:11:37.566Z,45.50
2018-05-09T21:14:05.108Z,45.80
2018-05-09T21:16:32.589Z,45.90
2018-05-09T21:19:00.103Z,46.10
2018-05-09T21:21:28.423Z,46.80
2018-05-09T21:23:56.665Z,46.80
2018-05-09T21:26:24.123Z,46.90
2018-05-09T21:28:51.594Z,46.90
2018-05-09T21:31:19.856Z,48.80
2018-05-09T21:33:47.315Z,48.40
2018-05-09T21:36:14.777Z,49.20
2018-05-09T21:38:42.286Z,50.10
2018-05-09T21:41:09.772Z,50.50
2018-05-09T21:43:37.247Z,51.20
2018-05-09T21:46:04.700Z,52.40
2018-05-09T21:48:33.110Z,53.10
2018-05-09T21:51:00.610Z,53.70
2018-05-09T21:53:28.089Z,53.90
2018-05-09T21:55:55.638Z,54.20
2018-05-09T21:58:23.067Z,54.90
2018-05-09T22:00:50.533Z,55.10
2018-05-09T22:03:18.024Z,55.40
2018-05-09T22:05:45.509Z,55.20
2018-05-09T22:08:12.979Z,55.90
2018-05-09T22:10:41.408Z,56.00
2018-05-09T22:13:08.873Z,56.10
2018-05-09T22:15:36.409Z,56.00
2018-05-09T22:18:03.878Z,56.00
2018-05-09T22:20:31.401Z,56.00
2018-05-09T22:22:58.837Z,55.90
2018-05-09T22:25:26.343Z,55.90
2018-05-09T22:27:53.799Z,56.00
2018-05-09T22:30:21.284Z,56.00
2018-05-09T22:32:48.923Z,56.20
2018-05-09T22:35:16.390Z,56.20
2018-05-09T22:37:43.884Z,56.20
2018-05-09T22:40:11.339Z,56.20
2018-05-09T22:42:38.820Z,56.40
2018-05-09T22:45:07.095Z,56.90
2018-05-09T22:47:35.352Z,56.50
2018-05-09T22:50:02.813Z,56.60
2018-05-09T22:52:30.292Z,56.60
2018-05-09T22:54:58.543Z,56.90
2018-05-09T22:57:26.012Z,56.80
2018-05-09T22:59:53.472Z,57.00
2018-05-09T23:02:20.924Z,57.10
2018-05-09T23:04:48.411Z,57.20
2018-05-09T23:07:16.686Z,57.30
2018-05-09T23:09:44.151Z,57.20
2018-05-09T23:12:12.395Z,57.30
2018-05-09T23:14:39.892Z,57.20
2018-05-09T23:17:07.381Z,57.30
2018-05-09T23:19:34.839Z,57.40
2018-05-09T23:22:02.376Z,57.40
2018-05-09T23:24:29.820Z,57.40
2018-05-09T23:26:57.292Z,57.50
2018-05-09T23:29:24.756Z,57.50
2018-05-09T23:31:52.241Z,57.40
2018-05-09T23:34:19.707Z,57.20
2018-05-09T23:36:47.220Z,57.20
2018-05-09T23:39:14.696Z,57.10
2018-05-09T23:41:42.175Z,57.00
2018-05-09T23:44:09.710Z,57.00
2018-05-09T23:46:37.179Z,56.80
2018-05-09T23:49:04.641Z,56.90
2018-05-09T23:51:32.123Z,56.60
2018-05-09T23:53:59.588Z,56.60
2018-05-09T23:56:27.073Z,56.60
2018-05-09T23:58:55.294Z,56.80
